createdAt,value
2023-02-23T00:03:32.049Z,19.90
2023-02-23T00:13:31.936Z,19.80
2023-02-23T00:23:31.620Z,20.40
2023-02-23T00:33:31.775Z,20.40
2023-02-23T00:43:31.000Z,20.40
2023-02-23T00:53:30.783Z,20.70
2023-02-23T01:03:30.486Z,19.70
2023-02-23T01:13:30.378Z,21.30
2023-02-23T01:23:30.076Z,21.10
2023-02-23T01:33:29.821Z,21.00
2023-02-23T01:43:29.488Z,19.90
2023-02-23T01:53:29.083Z,20.80
2023-02-23T02:03:28.697Z,20.90
2023-02-23T02:13:28.405Z,20.30
2023-02-23T02:23:28.084Z,20.80
2023-02-23T02:33:27.969Z,21.60
2023-02-23T02:43:27.856Z,21.30
2023-02-23T02:53:30.452Z,21.80
2023-02-23T03:03:26.963Z,21.70
2023-02-23T03:13:26.738Z,21.60
2023-02-23T03:23:26.401Z,22.30
2023-02-23T03:33:26.161Z,21.80
2023-02-23T03:43:25.845Z,23.10
2023-02-23T03:53:25.701Z,22.30
2023-02-23T04:03:25.411Z,21.80
2023-02-23T04:13:24.897Z,21.20
2023-02-23T04:23:24.441Z,21.30
2023-02-23T04:33:25.794Z,20.80
2023-02-23T04:43:23.914Z,22.20
2023-02-23T04:53:23.587Z,23.90
2023-02-23T05:03:23.047Z,25.00
2023-02-23T05:13:22.695Z,23.60
2023-02-23T05:23:22.339Z,22.50
2023-02-23T05:33:26.936Z,22.10
2023-02-23T05:43:21.615Z,20.10
2023-02-23T05:53:21.462Z,19.80
2023-02-23T06:03:20.919Z,18.30
2023-02-23T06:13:20.817Z,17.50
2023-02-23T06:23:20.307Z,17.10
2023-02-23T06:33:19.763Z,17.00
2023-02-23T06:43:20.194Z,17.00
2023-02-23T06:53:19.055Z,18.10
2023-02-23T07:03:19.174Z,19.10
2023-02-23T07:13:18.334Z,18.20
2023-02-23T07:23:18.037Z,16.20
2023-02-23T07:33:17.605Z,16.80
2023-02-23T07:43:17.465Z,13.40
2023-02-23T07:53:17.081Z,20.60
2023-02-23T08:03:16.740Z,15.90
2023-02-23T08:13:16.374Z,15.10
2023-02-23T08:23:15.864Z,15.10
2023-02-23T08:33:15.457Z,26.50
2023-02-23T08:43:16.260Z,16.20
2023-02-23T08:53:14.756Z,11.50
2023-02-23T09:03:14.414Z,12.60
2023-02-23T09:13:14.044Z,14.40
2023-02-23T09:23:13.749Z,18.00
2023-02-23T09:33:13.467Z,18.60
2023-02-23T09:43:13.008Z,17.50
2023-02-23T09:53:12.619Z,17.60
2023-02-23T10:03:12.307Z,16.90
2023-02-23T10:13:11.902Z,18.00
2023-02-23T10:23:11.489Z,17.60
2023-02-23T10:33:11.192Z,18.10
2023-02-23T10:43:10.756Z,17.50
2023-02-23T10:53:10.460Z,17.30
2023-02-23T11:03:10.031Z,16.00
2023-02-23T11:13:09.678Z,13.90
2023-02-23T11:23:14.102Z,14.80
2023-02-23T11:33:09.069Z,15.10
2023-02-23T11:43:08.664Z,12.20
2023-02-23T11:53:08.852Z,14.30
2023-02-23T12:03:07.811Z,16.70
2023-02-23T12:13:07.512Z,17.30
2023-02-23T12:23:07.085Z,19.50
2023-02-23T12:33:06.838Z,17.90
2023-02-23T12:43:06.305Z,20.90
2023-02-23T12:53:05.948Z,18.00
2023-02-23T13:03:05.539Z,17.40
2023-02-23T13:13:05.413Z,17.90
2023-02-23T13:23:04.824Z,18.00
2023-02-23T13:33:04.435Z,13.50
2023-02-23T13:43:04.252Z,16.10
2023-02-23T13:53:03.853Z,15.00
2023-02-23T14:03:04.858Z,16.10
2023-02-23T14:13:03.089Z,17.50
2023-02-23T14:23:02.539Z,16.90
2023-02-23T14:33:10.089Z,14.50
2023-02-23T14:43:01.812Z,11.20
2023-02-23T14:53:01.702Z,9.50
2023-02-23T15:03:03.001Z,11.40
2023-02-23T15:13:00.661Z,10.90
2023-02-23T15:23:00.302Z,11.00
2023-02-23T15:33:00.026Z,10.20
2023-02-23T15:42:59.780Z,11.00
2023-02-23T15:52:59.339Z,13.00
2023-02-23T16:02:58.815Z,11.50
2023-02-23T16:13:01.585Z,11.90
2023-02-23T16:22:58.111Z,13.20
2023-02-23T16:32:57.901Z,13.00
2023-02-23T16:42:57.351Z,13.30
2023-02-23T16:52:56.950Z,11.60
2023-02-23T17:02:51.685Z,12.30
2023-02-23T17:12:51.068Z,11.40
2023-02-23T17:22:50.686Z,11.30
2023-02-23T17:32:50.369Z,9.80
2023-02-23T17:42:50.002Z,12.30
2023-02-23T17:52:49.584Z,14.30
2023-02-23T18:02:49.288Z,16.60
2023-02-23T18:12:48.851Z,16.90
2023-02-23T18:22:48.472Z,16.70
2023-02-23T18:32:48.181Z,10.10
2023-02-23T18:42:47.721Z,9.00
2023-02-23T18:52:47.476Z,8.40
2023-02-23T19:02:46.961Z,7.00
2023-02-23T19:12:46.834Z,9.00
2023-02-23T19:22:46.312Z,10.80
2023-02-23T19:32:46.046Z,10.90
2023-02-23T19:42:45.626Z,10.70
2023-02-23T19:52:45.172Z,10.80
2023-02-23T20:02:44.736Z,11.60
2023-02-23T20:12:44.336Z,12.40
2023-02-23T20:22:44.000Z,12.70
2023-02-23T20:32:43.730Z,13.20
2023-02-23T20:42:43.188Z,13.00
2023-02-23T20:52:42.981Z,14.60
2023-02-23T21:02:37.378Z,12.40
2023-02-23T21:12:36.849Z,14.70
2023-02-23T21:22:36.452Z,12.90
2023-02-23T21:32:36.234Z,13.00
2023-02-23T21:42:35.732Z,11.90
2023-02-23T21:52:35.375Z,11.90
2023-02-23T22:02:34.990Z,14.60
2023-02-23T22:12:34.927Z,12.50
2023-02-23T22:22:34.215Z,15.40
2023-02-23T22:32:33.701Z,15.00
2023-02-23T22:42:33.296Z,18.70
2023-02-23T22:52:32.744Z,14.80
2023-02-23T23:02:32.530Z,13.80
2023-02-23T23:12:31.995Z,10.30
2023-02-23T23:22:31.797Z,10.10
2023-02-23T23:32:31.320Z,9.20
2023-02-23T23:42:30.934Z,8.30
2023-02-23T23:52:30.545Z,6.70
